sensor_id;sensor_type;location;lat;lon;timestamp;P1;durP1;ratioP1;P2;durP2;ratioP2
37485;SDS011;23341;50.296;18.960;2022-10-16T00:02:23;30.98;;;18.02;;
37485;SDS011;23341;50.296;18.960;2022-10-16T00:07:28;33.72;;;18.45;;
37485;SDS011;23341;50.296;18.960;2022-10-16T00:12:31;36.60;;;20.77;;
37485;SDS011;23341;50.296;18.960;2022-10-16T00:17:34;47.30;;;22.70;;
37485;SDS011;23341;50.296;18.960;2022-10-16T00:22:39;35.47;;;20.40;;
37485;SDS011;23341;50.296;18.960;2022-10-16T00:27:43;26.73;;;18.05;;
37485;SDS011;23341;50.296;18.960;2022-10-16T00:32:46;28.15;;;17.58;;
37485;SDS011;23341;50.296;18.960;2022-10-16T00:37:51;25.88;;;19.00;;
37485;SDS011;23341;50.296;18.960;2022-10-16T00:42:54;28.83;;;18.80;;
37485;SDS011;23341;50.296;18.960;2022-10-16T00:47:58;28.48;;;17.63;;
37485;SDS011;23341;50.296;18.960;2022-10-16T00:53:02;23.17;;;17.55;;
37485;SDS011;23341;50.296;18.960;2022-10-16T00:58:06;25.88;;;17.50;;
37485;SDS011;23341;50.296;18.960;2022-10-16T01:03:23;25.95;;;17.80;;
37485;SDS011;23341;50.296;18.960;2022-10-16T01:08:32;22.60;;;18.50;;
37485;SDS011;23341;50.296;18.960;2022-10-16T01:13:42;20.27;;;16.70;;
37485;SDS011;23341;50.296;18.960;2022-10-16T01:18:50;23.02;;;17.80;;
37485;SDS011;23341;50.296;18.960;2022-10-16T01:24:01;23.15;;;19.50;;
37485;SDS011;23341;50.296;18.960;2022-10-16T01:29:12;29.58;;;21.60;;
37485;SDS011;23341;50.296;18.960;2022-10-16T01:34:21;27.45;;;19.55;;
37485;SDS011;23341;50.296;18.960;2022-10-16T01:44:37;32.58;;;22.02;;
37485;SDS011;23341;50.296;18.960;2022-10-16T01:49:42;28.05;;;21.25;;
37485;SDS011;23341;50.296;18.960;2022-10-16T01:54:47;33.03;;;20.38;;
37485;SDS011;23341;50.296;18.960;2022-10-16T01:59:56;29.25;;;21.15;;
37485;SDS011;23341;50.296;18.960;2022-10-16T02:05:14;28.83;;;21.87;;
37485;SDS011;23341;50.296;18.960;2022-10-16T02:10:21;29.60;;;22.30;;
37485;SDS011;23341;50.296;18.960;2022-10-16T02:15:28;26.17;;;19.75;;
37485;SDS011;23341;50.296;18.960;2022-10-16T02:20:32;33.97;;;21.60;;
37485;SDS011;23341;50.296;18.960;2022-10-16T02:25:41;25.17;;;19.67;;
37485;SDS011;23341;50.296;18.960;2022-10-16T02:30:50;24.95;;;20.35;;
37485;SDS011;23341;50.296;18.960;2022-10-16T02:35:56;27.40;;;21.47;;
37485;SDS011;23341;50.296;18.960;2022-10-16T02:41:00;30.27;;;22.25;;
37485;SDS011;23341;50.296;18.960;2022-10-16T02:46:05;36.00;;;20.33;;
37485;SDS011;23341;50.296;18.960;2022-10-16T02:51:09;28.77;;;19.95;;
37485;SDS011;23341;50.296;18.960;2022-10-16T02:56:12;36.33;;;19.77;;
37485;SDS011;23341;50.296;18.960;2022-10-16T03:08:23;25.67;;;19.10;;
37485;SDS011;23341;50.296;18.960;2022-10-16T03:13:27;23.45;;;19.42;;
37485;SDS011;23341;50.296;18.960;2022-10-16T03:18:30;26.20;;;17.85;;
37485;SDS011;23341;50.296;18.960;2022-10-16T03:23:35;27.88;;;18.60;;
37485;SDS011;23341;50.296;18.960;2022-10-16T03:28:38;26.23;;;18.88;;
37485;SDS011;23341;50.296;18.960;2022-10-16T03:33:42;24.98;;;16.90;;
37485;SDS011;23341;50.296;18.960;2022-10-16T03:38:46;28.33;;;18.27;;
37485;SDS011;23341;50.296;18.960;2022-10-16T03:43:50;22.80;;;17.27;;
37485;SDS011;23341;50.296;18.960;2022-10-16T03:48:53;23.67;;;17.83;;
37485;SDS011;23341;50.296;18.960;2022-10-16T03:53:58;24.92;;;15.73;;
37485;SDS011;23341;50.296;18.960;2022-10-16T03:59:01;22.00;;;15.35;;
37485;SDS011;23341;50.296;18.960;2022-10-16T04:04:05;26.10;;;16.90;;
37485;SDS011;23341;50.296;18.960;2022-10-16T04:09:09;21.80;;;17.05;;
37485;SDS011;23341;50.296;18.960;2022-10-16T04:14:13;22.60;;;17.65;;
37485;SDS011;23341;50.296;18.960;2022-10-16T04:19:16;26.67;;;18.08;;
37485;SDS011;23341;50.296;18.960;2022-10-16T04:24:21;28.63;;;17.45;;
37485;SDS011;23341;50.296;18.960;2022-10-16T04:29:25;27.50;;;19.27;;
37485;SDS011;23341;50.296;18.960;2022-10-16T04:34:28;24.65;;;17.27;;
37485;SDS011;23341;50.296;18.960;2022-10-16T04:39:33;25.80;;;19.13;;
37485;SDS011;23341;50.296;18.960;2022-10-16T04:44:36;30.27;;;21.23;;
37485;SDS011;23341;50.296;18.960;2022-10-16T04:49:40;26.58;;;20.65;;
37485;SDS011;23341;50.296;18.960;2022-10-16T04:54:44;28.58;;;21.15;;
37485;SDS011;23341;50.296;18.960;2022-10-16T04:59:48;27.63;;;21.48;;
37485;SDS011;23341;50.296;18.960;2022-10-16T05:04:51;28.23;;;20.98;;
37485;SDS011;23341;50.296;18.960;2022-10-16T05:09:56;31.20;;;23.25;;
37485;SDS011;23341;50.296;18.960;2022-10-16T05:14:59;35.55;;;22.63;;
37485;SDS011;23341;50.296;18.960;2022-10-16T05:20:03;28.25;;;19.92;;
37485;SDS011;23341;50.296;18.960;2022-10-16T05:25:09;28.25;;;19.35;;
37485;SDS011;23341;50.296;18.960;2022-10-16T05:30:12;25.50;;;19.92;;
37485;SDS011;23341;50.296;18.960;2022-10-16T05:35:16;26.58;;;19.00;;
37485;SDS011;23341;50.296;18.960;2022-10-16T05:40:22;26.35;;;20.65;;
37485;SDS011;23341;50.296;18.960;2022-10-16T05:45:26;31.17;;;21.85;;
37485;SDS011;23341;50.296;18.960;2022-10-16T05:50:29;31.90;;;21.33;;
37485;SDS011;23341;50.296;18.960;2022-10-16T05:55:34;27.63;;;20.30;;
37485;SDS011;23341;50.296;18.960;2022-10-16T06:00:37;24.98;;;19.83;;
37485;SDS011;23341;50.296;18.960;2022-10-16T06:05:41;25.80;;;19.92;;
37485;SDS011;23341;50.296;18.960;2022-10-16T06:10:46;27.38;;;20.60;;
37485;SDS011;23341;50.296;18.960;2022-10-16T06:15:51;37.13;;;20.33;;
37485;SDS011;23341;50.296;18.960;2022-10-16T06:20:54;27.67;;;19.10;;
37485;SDS011;23341;50.296;18.960;2022-10-16T06:26:05;28.95;;;21.98;;
37485;SDS011;23341;50.296;18.960;2022-10-16T06:31:09;29.63;;;20.15;;
37485;SDS011;23341;50.296;18.960;2022-10-16T06:36:14;23.60;;;17.83;;
37485;SDS011;23341;50.296;18.960;2022-10-16T06:41:21;27.35;;;17.35;;
37485;SDS011;23341;50.296;18.960;2022-10-16T06:46:26;22.95;;;15.88;;
37485;SDS011;23341;50.296;18.960;2022-10-16T06:51:30;18.83;;;14.05;;
37485;SDS011;23341;50.296;18.960;2022-10-16T07:01:44;13.98;;;12.27;;
37485;SDS011;23341;50.296;18.960;2022-10-16T07:06:47;17.33;;;12.05;;
37485;SDS011;23341;50.296;18.960;2022-10-16T07:11:52;16.08;;;11.40;;
37485;SDS011;23341;50.296;18.960;2022-10-16T07:16:56;14.38;;;11.88;;
37485;SDS011;23341;50.296;18.960;2022-10-16T07:21:59;13.63;;;10.27;;
37485;SDS011;23341;50.296;18.960;2022-10-16T07:27:04;16.52;;;11.45;;
37485;SDS011;23341;50.296;18.960;2022-10-16T07:32:08;13.90;;;10.50;;
37485;SDS011;23341;50.296;18.960;2022-10-16T07:37:11;12.82;;;10.93;;
37485;SDS011;23341;50.296;18.960;2022-10-16T07:42:16;14.65;;;9.82;;
37485;SDS011;23341;50.296;18.960;2022-10-16T07:47:20;13.80;;;9.48;;
37485;SDS011;23341;50.296;18.960;2022-10-16T07:52:23;13.23;;;9.73;;
37485;SDS011;23341;50.296;18.960;2022-10-16T07:57:28;12.30;;;9.32;;
37485;SDS011;23341;50.296;18.960;2022-10-16T08:02:31;13.48;;;9.27;;
37485;SDS011;23341;50.296;18.960;2022-10-16T08:07:35;10.68;;;9.52;;
37485;SDS011;23341;50.296;18.960;2022-10-16T08:12:39;10.57;;;8.68;;
37485;SDS011;23341;50.296;18.960;2022-10-16T08:17:43;12.45;;;9.32;;
37485;SDS011;23341;50.296;18.960;2022-10-16T08:22:47;11.30;;;9.30;;
37485;SDS011;23341;50.296;18.960;2022-10-16T08:27:51;11.85;;;10.13;;
37485;SDS011;23341;50.296;18.960;2022-10-16T08:32:55;13.80;;;10.07;;
37485;SDS011;23341;50.296;18.960;2022-10-16T08:37:59;15.63;;;10.35;;
37485;SDS011;23341;50.296;18.960;2022-10-16T08:43:15;16.75;;;11.18;;
37485;SDS011;23341;50.296;18.960;2022-10-16T08:48:30;12.40;;;10.25;;
37485;SDS011;23341;50.296;18.960;2022-10-16T08:53:41;15.43;;;9.15;;
37485;SDS011;23341;50.296;18.960;2022-10-16T08:58:51;9.75;;;8.85;;
37485;SDS011;23341;50.296;18.960;2022-10-16T09:04:06;11.40;;;10.00;;
37485;SDS011;23341;50.296;18.960;2022-10-16T09:09:30;11.13;;;9.15;;
37485;SDS011;23341;50.296;18.960;2022-10-16T09:20:22;11.15;;;8.88;;
37485;SDS011;23341;50.296;18.960;2022-10-16T09:25:33;13.10;;;9.70;;
37485;SDS011;23341;50.296;18.960;2022-10-16T09:30:39;10.88;;;9.60;;
37485;SDS011;23341;50.296;18.960;2022-10-16T09:35:43;11.13;;;9.13;;
37485;SDS011;23341;50.296;18.960;2022-10-16T09:40:48;9.93;;;9.00;;
37485;SDS011;23341;50.296;18.960;2022-10-16T09:46:06;11.60;;;9.35;;
37485;SDS011;23341;50.296;18.960;2022-10-16T09:51:16;10.95;;;9.07;;
37485;SDS011;23341;50.296;18.960;2022-10-16T09:56:24;10.80;;;9.05;;
37485;SDS011;23341;50.296;18.960;2022-10-16T10:01:31;10.27;;;9.25;;
37485;SDS011;23341;50.296;18.960;2022-10-16T10:06:41;11.30;;;8.25;;
37485;SDS011;23341;50.296;18.960;2022-10-16T10:11:51;8.48;;;7.32;;
37485;SDS011;23341;50.296;18.960;2022-10-16T10:17:12;9.90;;;8.48;;
37485;SDS011;23341;50.296;18.960;2022-10-16T10:22:19;12.00;;;10.80;;
37485;SDS011;23341;50.296;18.960;2022-10-16T10:27:36;10.30;;;8.13;;
37485;SDS011;23341;50.296;18.960;2022-10-16T10:32:48;9.20;;;7.45;;
37485;SDS011;23341;50.296;18.960;2022-10-16T10:38:02;9.55;;;8.32;;
37485;SDS011;23341;50.296;18.960;2022-10-16T10:43:19;9.57;;;8.52;;
37485;SDS011;23341;50.296;18.960;2022-10-16T10:54:04;13.15;;;10.73;;
37485;SDS011;23341;50.296;18.960;2022-10-16T11:04:54;13.40;;;9.10;;
37485;SDS011;23341;50.296;18.960;2022-10-16T11:10:24;10.07;;;8.80;;
37485;SDS011;23341;50.296;18.960;2022-10-16T11:15:32;9.25;;;8.25;;
37485;SDS011;23341;50.296;18.960;2022-10-16T11:20:41;12.63;;;8.63;;
37485;SDS011;23341;50.296;18.960;2022-10-16T11:25:48;11.20;;;8.77;;
37485;SDS011;23341;50.296;18.960;2022-10-16T11:30:54;17.80;;;9.95;;
37485;SDS011;23341;50.296;18.960;2022-10-16T11:36:06;10.13;;;8.95;;
37485;SDS011;23341;50.296;18.960;2022-10-16T11:41:18;11.00;;;8.82;;
37485;SDS011;23341;50.296;18.960;2022-10-16T11:46:26;11.00;;;9.10;;
37485;SDS011;23341;50.296;18.960;2022-10-16T11:51:33;8.18;;;7.38;;
37485;SDS011;23341;50.296;18.960;2022-10-16T11:56:41;10.10;;;9.07;;
37485;SDS011;23341;50.296;18.960;2022-10-16T12:01:48;10.48;;;7.95;;
37485;SDS011;23341;50.296;18.960;2022-10-16T12:06:58;13.83;;;8.67;;
37485;SDS011;23341;50.296;18.960;2022-10-16T12:12:23;12.13;;;9.30;;
37485;SDS011;23341;50.296;18.960;2022-10-16T12:17:34;16.45;;;13.05;;
37485;SDS011;23341;50.296;18.960;2022-10-16T12:22:47;12.35;;;11.13;;
37485;SDS011;23341;50.296;18.960;2022-10-16T12:28:03;19.60;;;15.10;;
37485;SDS011;23341;50.296;18.960;2022-10-16T12:33:17;14.52;;;9.90;;
37485;SDS011;23341;50.296;18.960;2022-10-16T12:38:27;13.45;;;10.80;;
37485;SDS011;23341;50.296;18.960;2022-10-16T12:43:42;14.55;;;10.35;;
37485;SDS011;23341;50.296;18.960;2022-10-16T12:48:46;13.25;;;10.15;;
37485;SDS011;23341;50.296;18.960;2022-10-16T12:54:13;33.28;;;21.25;;
37485;SDS011;23341;50.296;18.960;2022-10-16T12:59:21;17.85;;;12.75;;
37485;SDS011;23341;50.296;18.960;2022-10-16T13:04:43;17.77;;;13.18;;
37485;SDS011;23341;50.296;18.960;2022-10-16T13:09:57;21.53;;;15.70;;
37485;SDS011;23341;50.296;18.960;2022-10-16T13:20:51;13.25;;;11.88;;
37485;SDS011;23341;50.296;18.960;2022-10-16T13:26:12;18.08;;;11.52;;
37485;SDS011;23341;50.296;18.960;2022-10-16T13:31:23;15.60;;;11.98;;
37485;SDS011;23341;50.296;18.960;2022-10-16T13:36:28;21.10;;;11.40;;
37485;SDS011;23341;50.296;18.960;2022-10-16T13:41:34;15.32;;;11.38;;
37485;SDS011;23341;50.296;18.960;2022-10-16T13:46:38;13.40;;;10.10;;
37485;SDS011;23341;50.296;18.960;2022-10-16T13:51:41;13.55;;;9.85;;
37485;SDS011;23341;50.296;18.960;2022-10-16T13:57:05;14.10;;;10.27;;
37485;SDS011;23341;50.296;18.960;2022-10-16T14:02:29;25.63;;;16.88;;
37485;SDS011;23341;50.296;18.960;2022-10-16T14:07:36;13.52;;;9.20;;
37485;SDS011;23341;50.296;18.960;2022-10-16T14:12:42;11.38;;;9.85;;
37485;SDS011;23341;50.296;18.960;2022-10-16T14:17:48;16.70;;;11.60;;
37485;SDS011;23341;50.296;18.960;2022-10-16T14:23:00;10.10;;;9.10;;
37485;SDS011;23341;50.296;18.960;2022-10-16T14:28:15;10.07;;;9.18;;
37485;SDS011;23341;50.296;18.960;2022-10-16T14:33:22;10.13;;;9.18;;
37485;SDS011;23341;50.296;18.960;2022-10-16T14:38:27;12.13;;;10.77;;
37485;SDS011;23341;50.296;18.960;2022-10-16T14:43:36;13.95;;;11.63;;
37485;SDS011;23341;50.296;18.960;2022-10-16T14:48:41;15.02;;;12.45;;
37485;SDS011;23341;50.296;18.960;2022-10-16T14:53:45;15.57;;;10.65;;
37485;SDS011;23341;50.296;18.960;2022-10-16T14:58:50;12.50;;;10.05;;
37485;SDS011;23341;50.296;18.960;2022-10-16T15:03:54;16.10;;;11.70;;
37485;SDS011;23341;50.296;18.960;2022-10-16T15:08:58;14.32;;;12.82;;
37485;SDS011;23341;50.296;18.960;2022-10-16T15:14:03;17.55;;;12.98;;
37485;SDS011;23341;50.296;18.960;2022-10-16T15:19:06;18.55;;;11.50;;
37485;SDS011;23341;50.296;18.960;2022-10-16T15:24:11;13.93;;;11.38;;
37485;SDS011;23341;50.296;18.960;2022-10-16T15:29:22;18.55;;;14.43;;
37485;SDS011;23341;50.296;18.960;2022-10-16T15:34:26;15.95;;;13.88;;
37485;SDS011;23341;50.296;18.960;2022-10-16T15:39:29;17.15;;;12.68;;
37485;SDS011;23341;50.296;18.960;2022-10-16T15:44:34;18.55;;;13.50;;
37485;SDS011;23341;50.296;18.960;2022-10-16T15:49:38;21.70;;;17.58;;
37485;SDS011;23341;50.296;18.960;2022-10-16T15:54:41;23.88;;;16.13;;
37485;SDS011;23341;50.296;18.960;2022-10-16T15:59:46;22.30;;;15.48;;
37485;SDS011;23341;50.296;18.960;2022-10-16T16:04:49;22.63;;;16.30;;
37485;SDS011;23341;50.296;18.960;2022-10-16T16:09:53;21.40;;;16.42;;
37485;SDS011;23341;50.296;18.960;2022-10-16T16:14:58;19.58;;;16.45;;
37485;SDS011;23341;50.296;18.960;2022-10-16T16:20:06;25.17;;;16.00;;
37485;SDS011;23341;50.296;18.960;2022-10-16T16:25:11;18.45;;;13.85;;
37485;SDS011;23341;50.296;18.960;2022-10-16T16:30:16;22.50;;;14.93;;
37485;SDS011;23341;50.296;18.960;2022-10-16T16:35:23;45.70;;;28.80;;
37485;SDS011;23341;50.296;18.960;2022-10-16T16:40:27;38.88;;;22.17;;
37485;SDS011;23341;50.296;18.960;2022-10-16T16:45:31;24.38;;;18.23;;
37485;SDS011;23341;50.296;18.960;2022-10-16T16:50:38;27.60;;;18.75;;
37485;SDS011;23341;50.296;18.960;2022-10-16T16:55:41;23.40;;;19.00;;
37485;SDS011;23341;50.296;18.960;2022-10-16T17:00:46;30.48;;;21.30;;
37485;SDS011;23341;50.296;18.960;2022-10-16T17:06:04;30.00;;;21.65;;
37485;SDS011;23341;50.296;18.960;2022-10-16T17:11:11;39.30;;;25.08;;
37485;SDS011;23341;50.296;18.960;2022-10-16T17:16:18;34.53;;;22.48;;
37485;SDS011;23341;50.296;18.960;2022-10-16T17:21:21;31.45;;;23.70;;
37485;SDS011;23341;50.296;18.960;2022-10-16T17:26:25;39.45;;;23.27;;
37485;SDS011;23341;50.296;18.960;2022-10-16T17:31:32;24.88;;;18.73;;
37485;SDS011;23341;50.296;18.960;2022-10-16T17:36:38;31.83;;;23.33;;
37485;SDS011;23341;50.296;18.960;2022-10-16T17:41:44;33.25;;;21.17;;
37485;SDS011;23341;50.296;18.960;2022-10-16T17:46:51;28.40;;;19.13;;
37485;SDS011;23341;50.296;18.960;2022-10-16T17:51:55;29.45;;;19.10;;
37485;SDS011;23341;50.296;18.960;2022-10-16T17:56:59;26.23;;;19.58;;
37485;SDS011;23341;50.296;18.960;2022-10-16T18:02:04;35.80;;;23.58;;
37485;SDS011;23341;50.296;18.960;2022-10-16T18:07:08;46.38;;;24.80;;
37485;SDS011;23341;50.296;18.960;2022-10-16T18:12:12;29.45;;;19.38;;
37485;SDS011;23341;50.296;18.960;2022-10-16T18:17:17;42.35;;;23.98;;
37485;SDS011;23341;50.296;18.960;2022-10-16T18:22:20;72.00;;;42.67;;
37485;SDS011;23341;50.296;18.960;2022-10-16T18:27:25;40.55;;;26.27;;
37485;SDS011;23341;50.296;18.960;2022-10-16T18:32:30;33.10;;;22.17;;
37485;SDS011;23341;50.296;18.960;2022-10-16T18:37:33;35.83;;;23.95;;
37485;SDS011;23341;50.296;18.960;2022-10-16T18:42:38;41.97;;;24.63;;
37485;SDS011;23341;50.296;18.960;2022-10-16T18:47:42;44.22;;;26.95;;
37485;SDS011;23341;50.296;18.960;2022-10-16T18:52:46;43.58;;;27.60;;
37485;SDS011;23341;50.296;18.960;2022-10-16T18:57:50;41.70;;;26.15;;
37485;SDS011;23341;50.296;18.960;2022-10-16T19:02:57;44.13;;;26.45;;
37485;SDS011;23341;50.296;18.960;2022-10-16T19:08:00;52.30;;;31.23;;
37485;SDS011;23341;50.296;18.960;2022-10-16T19:13:04;34.67;;;23.92;;
37485;SDS011;23341;50.296;18.960;2022-10-16T19:18:13;38.97;;;25.58;;
37485;SDS011;23341;50.296;18.960;2022-10-16T19:23:17;38.78;;;25.58;;
37485;SDS011;23341;50.296;18.960;2022-10-16T19:28:23;37.58;;;25.67;;
37485;SDS011;23341;50.296;18.960;2022-10-16T19:33:33;33.65;;;24.05;;
37485;SDS011;23341;50.296;18.960;2022-10-16T19:38:37;59.65;;;34.22;;
37485;SDS011;23341;50.296;18.960;2022-10-16T19:43:41;53.67;;;31.67;;
37485;SDS011;23341;50.296;18.960;2022-10-16T19:48:46;56.00;;;31.17;;
37485;SDS011;23341;50.296;18.960;2022-10-16T19:53:52;45.92;;;26.65;;
37485;SDS011;23341;50.296;18.960;2022-10-16T19:58:57;39.42;;;26.00;;
37485;SDS011;23341;50.296;18.960;2022-10-16T20:04:03;38.65;;;25.20;;
37485;SDS011;23341;50.296;18.960;2022-10-16T20:09:06;48.58;;;28.80;;
37485;SDS011;23341;50.296;18.960;2022-10-16T20:14:10;34.72;;;24.20;;
37485;SDS011;23341;50.296;18.960;2022-10-16T20:19:15;52.63;;;30.02;;
37485;SDS011;23341;50.296;18.960;2022-10-16T20:24:18;48.92;;;29.27;;
37485;SDS011;23341;50.296;18.960;2022-10-16T20:29:22;36.47;;;24.90;;
37485;SDS011;23341;50.296;18.960;2022-10-16T20:34:26;76.00;;;39.10;;
37485;SDS011;23341;50.296;18.960;2022-10-16T20:39:30;44.17;;;28.08;;
37485;SDS011;23341;50.296;18.960;2022-10-16T20:44:33;37.17;;;28.42;;
37485;SDS011;23341;50.296;18.960;2022-10-16T20:49:38;33.20;;;22.98;;
37485;SDS011;23341;50.296;18.960;2022-10-16T20:54:43;32.33;;;23.73;;
37485;SDS011;23341;50.296;18.960;2022-10-16T20:59:47;35.83;;;23.80;;
37485;SDS011;23341;50.296;18.960;2022-10-16T21:04:57;36.17;;;24.87;;
37485;SDS011;23341;50.296;18.960;2022-10-16T21:10:00;37.47;;;24.33;;
37485;SDS011;23341;50.296;18.960;2022-10-16T21:15:04;39.35;;;25.48;;
37485;SDS011;23341;50.296;18.960;2022-10-16T21:20:18;38.50;;;27.05;;
37485;SDS011;23341;50.296;18.960;2022-10-16T21:25:22;36.17;;;28.02;;
37485;SDS011;23341;50.296;18.960;2022-10-16T21:30:25;39.20;;;26.65;;
37485;SDS011;23341;50.296;18.960;2022-10-16T21:35:30;39.05;;;25.17;;
37485;SDS011;23341;50.296;18.960;2022-10-16T21:40:34;35.70;;;26.52;;
37485;SDS011;23341;50.296;18.960;2022-10-16T21:45:37;37.35;;;26.42;;
37485;SDS011;23341;50.296;18.960;2022-10-16T21:50:47;39.08;;;27.55;;
37485;SDS011;23341;50.296;18.960;2022-10-16T22:00:53;43.20;;;29.75;;
37485;SDS011;23341;50.296;18.960;2022-10-16T22:06:00;39.70;;;27.80;;
37485;SDS011;23341;50.296;18.960;2022-10-16T22:11:08;44.33;;;27.73;;
37485;SDS011;23341;50.296;18.960;2022-10-16T22:16:13;35.85;;;26.58;;
37485;SDS011;23341;50.296;18.960;2022-10-16T22:21:18;41.30;;;26.60;;
37485;SDS011;23341;50.296;18.960;2022-10-16T22:26:22;36.40;;;25.30;;
37485;SDS011;23341;50.296;18.960;2022-10-16T22:31:25;39.85;;;25.70;;
37485;SDS011;23341;50.296;18.960;2022-10-16T22:36:31;34.90;;;25.30;;
37485;SDS011;23341;50.296;18.960;2022-10-16T22:41:35;35.58;;;25.38;;
37485;SDS011;23341;50.296;18.960;2022-10-16T22:46:38;33.63;;;24.08;;
37485;SDS011;23341;50.296;18.960;2022-10-16T22:51:43;32.78;;;24.27;;
37485;SDS011;23341;50.296;18.960;2022-10-16T22:56:47;33.28;;;25.05;;
37485;SDS011;23341;50.296;18.960;2022-10-16T23:01:50;36.30;;;25.30;;
37485;SDS011;23341;50.296;18.960;2022-10-16T23:06:55;31.75;;;23.23;;
37485;SDS011;23341;50.296;18.960;2022-10-16T23:11:59;35.65;;;24.50;;
37485;SDS011;23341;50.296;18.960;2022-10-16T23:17:03;33.53;;;23.35;;
37485;SDS011;23341;50.296;18.960;2022-10-16T23:22:07;32.10;;;23.88;;
37485;SDS011;23341;50.296;18.960;2022-10-16T23:27:11;38.47;;;25.42;;
37485;SDS011;23341;50.296;18.960;2022-10-16T23:32:14;32.83;;;24.40;;
37485;SDS011;23341;50.296;18.960;2022-10-16T23:37:19;31.50;;;21.98;;
37485;SDS011;23341;50.296;18.960;2022-10-16T23:42:22;34.72;;;22.92;;
37485;SDS011;23341;50.296;18.960;2022-10-16T23:47:26;34.28;;;22.35;;
37485;SDS011;23341;50.296;18.960;2022-10-16T23:52:32;32.25;;;24.35;;
37485;SDS011;23341;50.296;18.960;2022-10-16T23:57:35;33.75;;;22.55;;
